createdAt,value
2022-10-22T00:01:06.023Z,13.55
2022-10-22T00:03:34.292Z,13.57
2022-10-22T00:06:02.240Z,13.64
2022-10-22T00:08:30.583Z,13.54
2022-10-22T00:10:58.919Z,13.55
2022-10-22T00:13:26.899Z,13.59
2022-10-22T00:15:54.826Z,13.55
2022-10-22T00:18:24.331Z,13.54
2022-10-22T00:20:52.357Z,13.57
2022-10-22T00:23:20.381Z,13.55
2022-10-22T00:25:48.434Z,13.64
2022-10-22T00:28:16.469Z,13.79
2022-10-22T00:30:44.391Z,13.76
2022-10-22T00:33:12.369Z,13.92
2022-10-22T00:35:41.674Z,13.96
2022-10-22T00:38:09.698Z,14.00
2022-10-22T00:40:37.614Z,14.00
2022-10-22T00:43:05.793Z,13.92
2022-10-22T00:45:33.840Z,14.00
2022-10-22T00:48:05.790Z,14.02
2022-10-22T00:50:36.999Z,14.10
2022-10-22T00:53:11.566Z,14.20
2022-10-22T00:55:41.343Z,14.18
2022-10-22T00:58:09.505Z,14.28
2022-10-22T01:00:37.508Z,14.30
2022-10-22T01:03:06.041Z,14.24
2022-10-22T01:05:40.954Z,14.27
2022-10-22T01:08:17.199Z,14.28
2022-10-22T01:10:55.599Z,14.41
2022-10-22T01:13:34.460Z,14.44
2022-10-22T01:16:11.757Z,14.45
2022-10-22T01:18:49.087Z,14.54
2022-10-22T01:21:27.926Z,14.46
2022-10-22T01:24:35.609Z,14.54
2022-10-22T01:27:25.457Z,14.52
2022-10-22T01:29:58.852Z,14.51
2022-10-22T01:32:28.964Z,14.58
2022-10-22T01:35:02.002Z,14.62
2022-10-22T01:37:33.261Z,14.58
2022-10-22T01:40:05.282Z,14.57
2022-10-22T01:42:33.268Z,14.49
2022-10-22T01:45:02.642Z,14.55
2022-10-22T01:47:44.190Z,14.55
2022-10-22T01:50:40.646Z,14.60
2022-10-22T01:53:19.705Z,14.61
2022-10-22T01:56:02.646Z,14.61
2022-10-22T01:58:40.373Z,14.67
2022-10-22T02:01:18.812Z,14.65
2022-10-22T02:03:52.502Z,14.62
2022-10-22T02:06:23.550Z,14.72
2022-10-22T02:08:54.108Z,14.71
2022-10-22T02:11:22.318Z,14.69
2022-10-22T02:13:54.806Z,14.65
2022-10-22T02:16:29.556Z,14.55
2022-10-22T02:19:01.421Z,14.46
2022-10-22T02:21:29.997Z,14.45
2022-10-22T02:24:01.088Z,14.45
2022-10-22T02:26:33.532Z,14.52
2022-10-22T02:29:10.754Z,14.48
2022-10-22T02:31:46.030Z,14.42
2022-10-22T02:34:17.006Z,14.34
2022-10-22T02:36:48.223Z,14.30
2022-10-22T02:39:20.317Z,14.16
2022-10-22T02:41:48.866Z,14.10
2022-10-22T02:44:24.224Z,14.00
2022-10-22T02:46:53.712Z,14.02
2022-10-22T02:49:21.663Z,14.02
2022-10-22T02:51:49.703Z,14.05
2022-10-22T02:54:17.610Z,13.96
2022-10-22T02:56:46.044Z,14.00
2022-10-22T02:59:16.730Z,13.95
2022-10-22T03:01:45.081Z,13.79
2022-10-22T03:04:17.860Z,13.64
2022-10-22T03:06:48.859Z,13.57
2022-10-22T03:09:20.160Z,13.44
2022-10-22T03:11:51.056Z,13.41
2022-10-22T03:14:19.098Z,13.24
2022-10-22T03:16:47.780Z,13.13
2022-10-22T03:19:17.175Z,13.03
2022-10-22T03:21:49.603Z,13.03
2022-10-22T03:24:22.831Z,12.91
2022-10-22T03:26:52.056Z,12.81
2022-10-22T03:29:22.633Z,12.84
2022-10-22T03:31:50.985Z,12.85
2022-10-22T03:34:20.340Z,12.78
2022-10-22T03:36:49.005Z,12.74
2022-10-22T03:39:19.947Z,12.65
2022-10-22T03:41:48.489Z,12.68
2022-10-22T03:44:18.005Z,12.64
2022-10-22T03:46:47.651Z,12.64
2022-10-22T03:49:15.649Z,12.57
2022-10-22T03:51:45.000Z,12.74
2022-10-22T03:54:16.735Z,13.17
2022-10-22T03:57:13.682Z,13.64
2022-10-22T03:59:43.472Z,13.61
2022-10-22T04:02:12.072Z,13.78
2022-10-22T04:04:40.632Z,13.92
2022-10-22T04:07:10.143Z,14.18
2022-10-22T04:09:38.369Z,14.28
2022-10-22T04:12:08.055Z,14.26
2022-10-22T04:14:36.019Z,14.41
2022-10-22T04:17:04.053Z,14.48
2022-10-22T04:19:32.033Z,14.62
2022-10-22T04:22:00.098Z,14.60
2022-10-22T04:24:31.056Z,14.52
2022-10-22T04:26:59.193Z,14.44
2022-10-22T04:29:27.725Z,14.40
2022-10-22T04:31:55.729Z,14.33
2022-10-22T04:34:23.674Z,14.26
2022-10-22T04:36:51.653Z,14.16
2022-10-22T04:39:19.608Z,14.10
2022-10-22T04:41:48.991Z,13.99
2022-10-22T04:44:18.555Z,14.06
2022-10-22T04:46:46.991Z,14.18
2022-10-22T04:49:15.071Z,14.05
2022-10-22T04:51:43.866Z,14.08
2022-10-22T04:54:11.917Z,14.24
2022-10-22T04:56:39.929Z,14.27
2022-10-22T04:59:12.395Z,14.18
2022-10-22T05:01:43.192Z,14.18
2022-10-22T05:04:13.321Z,14.24
2022-10-22T05:06:41.087Z,14.24
2022-10-22T05:09:12.776Z,14.30
2022-10-22T05:11:45.350Z,14.26
2022-10-22T05:14:15.113Z,14.37
2022-10-22T05:16:43.143Z,14.30
2022-10-22T05:19:17.434Z,14.26
2022-10-22T05:21:45.694Z,14.27
2022-10-22T05:24:14.362Z,14.34
2022-10-22T05:26:42.705Z,14.33
2022-10-22T05:29:10.667Z,14.34
2022-10-22T05:31:41.191Z,14.35
2022-10-22T05:34:09.112Z,14.33
2022-10-22T05:36:37.422Z,14.33
2022-10-22T05:39:05.502Z,14.30
2022-10-22T05:41:35.696Z,14.27
2022-10-22T05:44:04.252Z,14.17
2022-10-22T05:46:35.699Z,14.23
2022-10-22T05:49:06.843Z,14.30
2022-10-22T05:51:36.814Z,14.34
2022-10-22T05:54:05.829Z,14.35
2022-10-22T05:56:33.821Z,14.38
2022-10-22T06:01:35.335Z,14.31
2022-10-22T06:04:07.412Z,14.33
2022-10-22T06:06:37.426Z,14.38
2022-10-22T06:09:08.278Z,14.34
2022-10-22T06:11:36.239Z,14.35
2022-10-22T06:14:04.836Z,14.38
2022-10-22T06:16:33.303Z,14.35
2022-10-22T06:19:02.090Z,14.28
2022-10-22T06:21:32.569Z,14.20
2022-10-22T06:24:01.938Z,14.24
2022-10-22T06:26:31.094Z,14.17
2022-10-22T06:29:00.379Z,14.18
2022-10-22T06:31:29.553Z,14.21
2022-10-22T06:33:58.512Z,14.28
2022-10-22T06:36:26.515Z,14.35
2022-10-22T06:38:56.922Z,14.40
2022-10-22T06:41:28.553Z,14.40
2022-10-22T06:44:00.032Z,14.45
2022-10-22T06:46:28.269Z,14.49
2022-10-22T06:48:58.183Z,14.64
2022-10-22T06:51:27.464Z,14.75
2022-10-22T06:53:57.896Z,14.83
2022-10-22T06:56:28.735Z,14.93
2022-10-22T06:58:58.962Z,14.97
2022-10-22T07:01:28.554Z,15.04
2022-10-22T07:03:56.845Z,15.03
2022-10-22T07:06:26.088Z,15.03
2022-10-22T07:08:56.474Z,15.04
2022-10-22T07:11:27.117Z,15.04
2022-10-22T07:13:56.495Z,15.04
2022-10-22T07:16:28.152Z,15.04
2022-10-22T07:19:00.641Z,15.06
2022-10-22T07:21:28.885Z,15.08
2022-10-22T07:23:59.962Z,15.07
2022-10-22T07:26:31.230Z,15.03
2022-10-22T07:29:00.586Z,15.07
2022-10-22T07:31:29.295Z,15.06
2022-10-22T07:33:57.714Z,14.99
2022-10-22T07:36:25.807Z,15.04
2022-10-22T07:38:59.233Z,15.19
2022-10-22T07:41:28.414Z,15.30
2022-10-22T07:43:57.050Z,15.32
2022-10-22T07:46:26.764Z,15.49
2022-10-22T07:48:54.849Z,15.52
2022-10-22T07:51:23.512Z,15.58
2022-10-22T07:53:51.540Z,15.65
2022-10-22T07:56:21.662Z,15.68
2022-10-22T07:58:49.645Z,15.54
2022-10-22T08:01:17.741Z,15.48
2022-10-22T08:03:45.801Z,15.40
2022-10-22T08:06:15.124Z,15.42
2022-10-22T08:08:43.557Z,15.57
2022-10-22T08:11:12.148Z,15.58
2022-10-22T08:13:45.117Z,15.62
2022-10-22T08:16:13.964Z,15.63
2022-10-22T08:18:41.925Z,15.72
2022-10-22T08:21:09.985Z,15.81
2022-10-22T08:23:37.946Z,15.94
2022-10-22T08:26:06.314Z,15.94
2022-10-22T08:28:37.247Z,16.04
2022-10-22T08:31:08.717Z,16.07
2022-10-22T08:33:41.070Z,16.04
2022-10-22T08:36:09.839Z,16.09
2022-10-22T08:38:37.841Z,16.18
2022-10-22T08:41:12.830Z,16.01
2022-10-22T08:44:15.901Z,16.10
2022-10-22T08:47:11.447Z,16.11
2022-10-22T08:49:42.875Z,15.94
2022-10-22T08:52:16.809Z,15.92
2022-10-22T08:54:52.909Z,15.94
2022-10-22T08:57:32.193Z,15.87
2022-10-22T09:00:06.369Z,15.96
2022-10-22T09:02:44.435Z,15.81
2022-10-22T09:05:30.840Z,16.09
2022-10-22T09:07:58.964Z,16.14
2022-10-22T09:10:30.507Z,16.09
2022-10-22T09:12:58.558Z,16.32
2022-10-22T09:15:27.033Z,16.44
2022-10-22T09:18:07.100Z,16.48
2022-10-22T09:20:43.494Z,16.51
2022-10-22T09:23:25.811Z,16.42
2022-10-22T09:25:53.809Z,16.47
2022-10-22T09:28:22.063Z,16.71
2022-10-22T09:30:51.387Z,16.86
2022-10-22T09:33:26.916Z,16.71
2022-10-22T09:35:57.426Z,16.79
2022-10-22T09:38:28.783Z,16.76
2022-10-22T09:40:58.855Z,16.72
2022-10-22T09:43:27.014Z,16.73
2022-10-22T09:45:58.198Z,16.62
2022-10-22T09:48:34.601Z,16.83
2022-10-22T09:51:07.790Z,17.18
2022-10-22T09:53:40.560Z,17.11
2022-10-22T09:56:11.188Z,17.18
2022-10-22T09:58:43.944Z,17.10
2022-10-22T10:01:19.077Z,17.30
2022-10-22T10:03:49.591Z,17.55
2022-10-22T10:06:20.058Z,17.56
2022-10-22T10:08:48.589Z,17.48
2022-10-22T10:11:29.210Z,17.73
2022-10-22T10:14:11.145Z,17.66
2022-10-22T10:16:50.035Z,17.77
2022-10-22T10:19:36.172Z,18.31
2022-10-22T10:22:15.284Z,18.28
2022-10-22T10:25:00.280Z,18.31
2022-10-22T10:27:36.281Z,18.34
2022-10-22T10:30:07.724Z,18.44
2022-10-22T10:32:52.777Z,18.32
2022-10-22T10:35:26.690Z,18.62
2022-10-22T10:38:10.418Z,18.51
2022-10-22T10:40:44.948Z,18.48
2022-10-22T10:43:18.312Z,18.51
2022-10-22T10:45:58.491Z,18.53
2022-10-22T10:48:36.904Z,18.73
2022-10-22T10:51:17.266Z,18.57
2022-10-22T10:53:59.815Z,18.60
2022-10-22T10:56:39.290Z,18.28
2022-10-22T10:59:19.565Z,17.96
2022-10-22T11:02:00.689Z,18.00
2022-10-22T11:04:49.008Z,18.27
2022-10-22T11:07:34.279Z,18.18
2022-10-22T11:10:12.961Z,17.91
2022-10-22T11:12:45.293Z,17.75
2022-10-22T11:15:24.136Z,17.55
2022-10-22T11:17:54.100Z,17.49
2022-10-22T11:20:26.733Z,17.34
2022-10-22T11:23:18.832Z,17.28
2022-10-22T11:25:49.386Z,17.18
2022-10-22T11:28:23.517Z,17.13
2022-10-22T11:31:04.287Z,17.14
2022-10-22T11:33:40.151Z,16.91
2022-10-22T11:36:09.988Z,16.87
2022-10-22T11:38:39.074Z,16.63
2022-10-22T11:41:10.740Z,16.79
2022-10-22T11:43:58.951Z,16.72
2022-10-22T11:46:40.975Z,16.84
2022-10-22T11:49:20.953Z,16.66
2022-10-22T11:51:49.202Z,16.89
2022-10-22T11:54:43.374Z,16.93
2022-10-22T11:57:20.850Z,17.15
2022-10-22T11:59:53.631Z,17.02
2022-10-22T12:02:41.369Z,16.96
2022-10-22T12:05:43.471Z,17.00
2022-10-22T12:08:23.089Z,17.23
2022-10-22T12:11:03.959Z,17.14
2022-10-22T12:13:34.308Z,17.11
2022-10-22T12:16:05.565Z,17.17
2022-10-22T12:18:42.963Z,17.08
2022-10-22T12:21:14.252Z,17.23
2022-10-22T12:23:42.782Z,17.18
2022-10-22T12:26:25.514Z,17.15
2022-10-22T12:28:58.469Z,17.00
2022-10-22T12:31:26.865Z,16.87
2022-10-22T12:33:58.925Z,16.72
2022-10-22T12:36:27.880Z,16.69
2022-10-22T12:38:55.966Z,16.59
2022-10-22T12:41:33.823Z,16.41
2022-10-22T12:44:06.112Z,16.20
2022-10-22T12:46:35.787Z,16.13
2022-10-22T12:49:09.246Z,16.09
2022-10-22T12:51:37.213Z,16.17
2022-10-22T12:54:09.392Z,16.58
2022-10-22T12:56:39.318Z,16.91
2022-10-22T12:59:14.101Z,16.97
2022-10-22T13:01:43.958Z,16.86
2022-10-22T13:04:20.453Z,16.97
2022-10-22T13:06:50.175Z,17.18
2022-10-22T13:09:23.719Z,17.48
2022-10-22T13:11:59.218Z,17.42
2022-10-22T13:14:32.573Z,17.46
2022-10-22T13:17:10.682Z,17.43
2022-10-22T13:19:51.096Z,17.55
2022-10-22T13:22:32.059Z,17.56
2022-10-22T13:25:05.398Z,17.38
2022-10-22T13:27:44.002Z,17.49
2022-10-22T13:30:20.727Z,17.25
2022-10-22T13:32:53.760Z,17.20
2022-10-22T13:35:25.341Z,17.32
2022-10-22T13:37:53.646Z,17.24
2022-10-22T13:40:22.075Z,17.30
2022-10-22T13:42:51.526Z,17.30
2022-10-22T13:45:19.750Z,17.28
2022-10-22T13:47:51.771Z,17.06
2022-10-22T13:50:21.800Z,16.86
2022-10-22T13:52:51.428Z,16.89
2022-10-22T13:55:22.214Z,16.96
2022-10-22T13:57:51.823Z,16.97
2022-10-22T14:00:21.730Z,16.97
2022-10-22T14:02:54.578Z,16.86
2022-10-22T14:05:22.788Z,16.83
2022-10-22T14:07:50.904Z,16.86
2022-10-22T14:10:21.392Z,16.86
2022-10-22T14:12:53.505Z,16.83
2022-10-22T14:15:24.997Z,16.89
2022-10-22T14:17:56.397Z,16.89
2022-10-22T14:20:26.273Z,16.91
2022-10-22T14:22:54.027Z,17.17
2022-10-22T14:25:24.214Z,17.14
2022-10-22T14:27:54.074Z,17.15
2022-10-22T14:30:23.342Z,16.99
2022-10-22T14:32:52.896Z,16.94
2022-10-22T14:35:22.537Z,16.80
2022-10-22T14:37:50.980Z,16.65
2022-10-22T14:40:21.079Z,16.61
2022-10-22T14:42:50.077Z,16.51
2022-10-22T14:45:22.200Z,16.42
2022-10-22T14:47:50.580Z,16.35
2022-10-22T14:50:20.385Z,16.28
2022-10-22T14:52:48.628Z,16.38
2022-10-22T14:55:18.533Z,16.40
2022-10-22T14:57:47.125Z,16.40
2022-10-22T15:00:17.011Z,16.32
2022-10-22T15:02:46.655Z,16.32
2022-10-22T15:05:15.406Z,16.25
2022-10-22T15:07:44.863Z,16.24
2022-10-22T15:10:12.966Z,16.22
2022-10-22T15:12:40.913Z,16.17
2022-10-22T15:15:09.585Z,16.17
2022-10-22T15:17:37.600Z,16.22
2022-10-22T15:20:08.593Z,16.22
2022-10-22T15:22:36.560Z,16.29
2022-10-22T15:25:06.734Z,16.25
2022-10-22T15:27:34.936Z,16.24
2022-10-22T15:32:32.397Z,16.20
2022-10-22T15:35:00.886Z,16.18
2022-10-22T15:37:30.885Z,16.10
2022-10-22T15:40:00.666Z,16.17
2022-10-22T15:42:28.714Z,16.20
2022-10-22T15:44:59.726Z,16.21
2022-10-22T15:47:29.765Z,16.14
2022-10-22T15:49:58.057Z,16.11
2022-10-22T15:52:26.099Z,16.10
2022-10-22T15:54:55.817Z,16.07
2022-10-22T15:57:23.983Z,16.04
2022-10-22T15:59:53.126Z,16.01
2022-10-22T16:02:22.161Z,15.92
2022-10-22T16:04:50.133Z,15.89
2022-10-22T16:07:21.083Z,15.65
2022-10-22T16:09:52.376Z,15.52
2022-10-22T16:12:21.833Z,15.40
2022-10-22T16:14:51.363Z,15.27
2022-10-22T16:17:19.935Z,15.26
2022-10-22T16:19:49.326Z,15.24
2022-10-22T16:22:17.236Z,15.30
2022-10-22T16:24:45.238Z,15.28
2022-10-22T16:27:13.202Z,15.21
2022-10-22T16:29:43.616Z,15.17
2022-10-22T16:32:13.244Z,15.10
2022-10-22T16:34:42.012Z,15.08
2022-10-22T16:37:10.631Z,15.03
2022-10-22T16:39:39.042Z,15.08
2022-10-22T16:42:07.293Z,15.06
2022-10-22T16:44:35.326Z,14.96
2022-10-22T16:47:04.627Z,14.92
2022-10-22T16:49:32.675Z,14.93
2022-10-22T16:52:00.762Z,14.80
2022-10-22T16:54:28.907Z,14.68
2022-10-22T16:56:56.958Z,14.67
2022-10-22T16:59:25.115Z,14.61
2022-10-22T17:01:54.503Z,14.62
2022-10-22T17:04:27.034Z,14.65
2022-10-22T17:06:54.995Z,14.67
2022-10-22T17:09:24.224Z,14.54
2022-10-22T17:11:52.196Z,14.55
2022-10-22T17:14:20.177Z,14.45
2022-10-22T17:16:53.317Z,14.38
2022-10-22T17:19:21.898Z,14.38
2022-10-22T17:21:53.666Z,14.37
2022-10-22T17:24:21.773Z,14.37
2022-10-22T17:26:50.570Z,14.37
2022-10-22T17:29:20.870Z,14.28
2022-10-22T17:31:50.208Z,14.24
2022-10-22T17:34:18.627Z,14.17
2022-10-22T17:36:46.732Z,14.12
2022-10-22T17:39:18.821Z,13.95
2022-10-22T17:41:46.994Z,14.00
2022-10-22T17:44:16.767Z,13.98
2022-10-22T17:46:45.327Z,13.99
2022-10-22T17:49:19.061Z,13.83
2022-10-22T17:51:48.746Z,13.79
2022-10-22T17:54:18.102Z,13.90
2022-10-22T17:56:46.232Z,13.92
2022-10-22T17:59:16.161Z,13.96
2022-10-22T18:01:45.792Z,13.95
2022-10-22T18:04:15.560Z,13.95
2022-10-22T18:06:43.595Z,13.93
2022-10-22T18:09:18.172Z,13.92
2022-10-22T18:11:48.746Z,13.82
2022-10-22T18:14:18.430Z,13.64
2022-10-22T18:16:46.958Z,13.50
2022-10-22T18:19:17.990Z,13.37
2022-10-22T18:21:46.584Z,13.20
2022-10-22T18:24:15.102Z,13.05
2022-10-22T18:26:43.296Z,12.96
2022-10-22T18:29:15.775Z,12.75
2022-10-22T18:31:43.774Z,12.65
2022-10-22T18:34:12.208Z,12.64
2022-10-22T18:36:41.600Z,12.71
2022-10-22T18:39:09.679Z,12.72
2022-10-22T18:41:37.682Z,12.67
2022-10-22T18:44:07.291Z,12.72
2022-10-22T18:46:39.120Z,12.81
2022-10-22T18:49:08.156Z,12.81
2022-10-22T18:51:36.821Z,12.91
2022-10-22T18:54:18.295Z,13.00
2022-10-22T18:56:50.592Z,12.97
2022-10-22T18:59:21.474Z,13.07
2022-10-22T19:01:52.587Z,13.07
2022-10-22T19:04:20.711Z,12.99
2022-10-22T19:06:48.796Z,13.00
2022-10-22T19:09:17.436Z,12.99
2022-10-22T19:11:46.451Z,12.97
2022-10-22T19:14:19.505Z,13.05
2022-10-22T19:16:47.638Z,12.93
2022-10-22T19:19:19.043Z,12.93
2022-10-22T19:21:47.432Z,12.99
2022-10-22T19:24:21.364Z,13.12
2022-10-22T19:26:50.835Z,13.20
2022-10-22T19:29:20.559Z,13.24
2022-10-22T19:31:52.983Z,13.24
2022-10-22T19:34:22.895Z,13.27
2022-10-22T19:36:52.994Z,13.28
2022-10-22T19:39:21.120Z,13.20
2022-10-22T19:41:49.580Z,13.20
2022-10-22T19:44:19.847Z,13.13
2022-10-22T19:46:47.976Z,12.99
2022-10-22T19:49:19.081Z,12.92
2022-10-22T19:51:51.773Z,12.88
2022-10-22T19:54:20.533Z,12.91
2022-10-22T19:56:49.798Z,12.81
2022-10-22T19:59:20.459Z,12.97
2022-10-22T20:01:48.493Z,13.06
2022-10-22T20:04:18.756Z,13.17
2022-10-22T20:06:47.318Z,13.14
2022-10-22T20:09:17.593Z,13.21
2022-10-22T20:11:46.035Z,13.13
2022-10-22T20:14:14.953Z,13.07
2022-10-22T20:16:43.974Z,13.06
2022-10-22T20:19:15.881Z,13.12
2022-10-22T20:21:44.993Z,13.07
2022-10-22T20:24:14.084Z,13.14
2022-10-22T20:26:46.398Z,13.09
2022-10-22T20:29:15.673Z,13.12
2022-10-22T20:31:43.731Z,13.14
2022-10-22T20:34:11.834Z,13.24
2022-10-22T20:36:40.471Z,13.36
2022-10-22T20:39:12.096Z,13.38
2022-10-22T20:41:40.743Z,13.26
2022-10-22T20:44:14.212Z,13.17
2022-10-22T20:46:42.629Z,13.19
2022-10-22T20:49:14.008Z,13.27
2022-10-22T20:51:42.579Z,13.34
2022-10-22T20:54:11.014Z,13.30
2022-10-22T20:56:42.263Z,13.23
2022-10-22T20:59:12.706Z,13.20
2022-10-22T21:01:42.908Z,13.24
2022-10-22T21:04:11.046Z,13.28
2022-10-22T21:06:40.386Z,13.27
2022-10-22T21:09:10.058Z,13.33
2022-10-22T21:11:41.598Z,13.30
2022-10-22T21:14:12.573Z,13.26
2022-10-22T21:16:42.276Z,13.27
2022-10-22T21:19:11.455Z,13.23
2022-10-22T21:21:39.508Z,13.19
2022-10-22T21:24:07.898Z,13.19
2022-10-22T21:26:38.059Z,13.33
2022-10-22T21:29:06.023Z,13.36
2022-10-22T21:31:35.775Z,13.33
2022-10-22T21:34:04.139Z,13.33
2022-10-22T21:36:32.171Z,13.31
2022-10-22T21:39:00.139Z,13.21
2022-10-22T21:41:27.970Z,13.34
2022-10-22T21:43:55.836Z,13.37
2022-10-22T21:46:27.010Z,13.48
2022-10-22T21:48:57.917Z,13.43
2022-10-22T21:51:26.540Z,13.37
2022-10-22T21:53:54.775Z,13.28
2022-10-22T21:56:25.281Z,13.37
2022-10-22T21:58:53.450Z,13.37
2022-10-22T22:01:21.523Z,13.34
2022-10-22T22:03:51.566Z,13.36
2022-10-22T22:06:22.992Z,13.36
2022-10-22T22:08:54.226Z,13.24
2022-10-22T22:11:24.657Z,13.30
2022-10-22T22:13:53.589Z,13.37
2022-10-22T22:16:27.165Z,13.24
2022-10-22T22:18:57.829Z,13.20
2022-10-22T22:21:28.936Z,13.30
2022-10-22T22:23:58.357Z,13.40
2022-10-22T22:26:29.803Z,13.43
2022-10-22T22:29:01.034Z,13.38
2022-10-22T22:31:31.735Z,13.37
2022-10-22T22:34:00.609Z,13.37
2022-10-22T22:36:34.962Z,13.40
2022-10-22T22:39:05.085Z,13.55
2022-10-22T22:41:33.428Z,13.58
2022-10-22T22:44:01.546Z,13.54
2022-10-22T22:46:29.889Z,13.58
2022-10-22T22:48:58.247Z,13.61
2022-10-22T22:51:26.349Z,13.62
2022-10-22T22:53:55.930Z,13.58
2022-10-22T22:56:26.376Z,13.58
2022-10-22T22:58:54.415Z,13.65
2022-10-22T23:01:24.907Z,13.72
2022-10-22T23:03:55.709Z,13.81
2022-10-22T23:06:25.330Z,13.89
2022-10-22T23:08:57.385Z,14.09
2022-10-22T23:11:28.724Z,14.12
2022-10-22T23:13:59.289Z,14.08
2022-10-22T23:16:28.704Z,14.08
2022-10-22T23:18:57.650Z,14.08
2022-10-22T23:21:28.195Z,13.90
2022-10-22T23:23:59.277Z,13.82
2022-10-22T23:26:29.774Z,13.72
2022-10-22T23:29:01.654Z,13.62
2022-10-22T23:31:31.406Z,13.53
2022-10-22T23:33:59.565Z,13.59
2022-10-22T23:36:28.164Z,13.65
2022-10-22T23:38:57.519Z,13.71
2022-10-22T23:41:25.528Z,13.85
2022-10-22T23:43:53.437Z,13.99
2022-10-22T23:46:21.407Z,13.98
2022-10-22T23:48:49.456Z,13.83
2022-10-22T23:51:18.096Z,13.68
2022-10-22T23:53:46.493Z,13.31
2022-10-22T23:56:17.954Z,13.09
2022-10-22T23:58:45.951Z,12.81
